createdAt,value
2018-12-21T00:00:01.748Z,9.60
2018-12-21T00:02:29.277Z,9.47
2018-12-21T00:04:56.817Z,8.10
2018-12-21T00:07:24.343Z,8.90
2018-12-21T00:09:51.858Z,8.53
2018-12-21T00:12:19.368Z,8.10
2018-12-21T00:14:46.888Z,7.93
2018-12-21T00:17:14.430Z,8.10
2018-12-21T00:19:41.952Z,7.10
2018-12-21T00:22:09.594Z,7.93
2018-12-21T00:24:37.109Z,6.87
2018-12-21T00:27:04.646Z,7.10
2018-12-21T00:29:32.171Z,7.20
2018-12-21T00:32:05.561Z,6.13
2018-12-21T00:34:38.598Z,6.73
2018-12-21T00:37:11.728Z,7.70
2018-12-21T00:39:44.987Z,5.93
2018-12-21T00:42:14.578Z,6.10
2018-12-21T00:44:42.097Z,6.50
2018-12-21T00:47:11.741Z,7.20
2018-12-21T00:49:39.304Z,5.70
2018-12-21T00:52:06.829Z,6.30
2018-12-21T00:54:34.408Z,6.17
2018-12-21T00:57:02.055Z,6.87
2018-12-21T00:59:29.581Z,7.20
2018-12-21T01:01:57.112Z,6.20
2018-12-21T01:04:24.660Z,7.50
2018-12-21T01:06:52.192Z,7.57
2018-12-21T01:09:19.772Z,6.57
2018-12-21T01:11:47.299Z,6.97
2018-12-21T01:14:14.845Z,7.30
2018-12-21T01:16:42.472Z,7.83
2018-12-21T01:19:09.999Z,7.93
2018-12-21T01:21:38.954Z,7.90
2018-12-21T01:24:06.669Z,9.97
2018-12-21T01:26:34.178Z,7.70
2018-12-21T01:29:01.692Z,8.37
2018-12-21T01:31:29.191Z,9.27
2018-12-21T01:33:56.675Z,9.13
2018-12-21T01:36:24.218Z,10.10
2018-12-21T01:38:51.716Z,10.27
2018-12-21T01:41:19.257Z,9.47
2018-12-21T01:43:46.769Z,10.23
2018-12-21T01:46:14.262Z,10.50
2018-12-21T01:48:41.802Z,11.03
2018-12-21T01:51:09.288Z,10.80
2018-12-21T01:53:36.805Z,10.80
2018-12-21T01:56:04.303Z,10.07
2018-12-21T01:58:31.910Z,10.87
2018-12-21T02:00:59.472Z,9.97
2018-12-21T02:03:26.960Z,10.17
2018-12-21T02:05:54.450Z,9.97
2018-12-21T02:08:22.112Z,10.37
2018-12-21T02:10:49.652Z,9.17
2018-12-21T02:13:17.191Z,9.80
2018-12-21T02:15:44.701Z,8.73
2018-12-21T02:18:12.326Z,10.00
2018-12-21T02:20:39.816Z,8.50
2018-12-21T02:23:07.341Z,9.20
2018-12-21T02:25:34.844Z,8.93
2018-12-21T02:28:02.321Z,8.60
2018-12-21T02:30:29.839Z,8.73
2018-12-21T02:32:57.352Z,8.77
2018-12-21T02:35:24.903Z,8.20
2018-12-21T02:37:52.399Z,8.80
2018-12-21T02:40:19.912Z,7.77
2018-12-21T02:42:47.432Z,8.53
2018-12-21T02:45:14.979Z,7.80
2018-12-21T02:47:42.531Z,7.93
2018-12-21T02:50:10.059Z,6.90
2018-12-21T02:52:37.583Z,6.90
2018-12-21T02:55:05.243Z,7.30
2018-12-21T02:57:32.776Z,6.60
2018-12-21T03:00:00.275Z,6.63
2018-12-21T03:02:27.793Z,7.07
2018-12-21T03:04:55.430Z,6.93
2018-12-21T03:07:22.967Z,6.10
2018-12-21T03:09:50.463Z,6.53
2018-12-21T03:12:17.963Z,6.53
2018-12-21T03:14:46.292Z,6.67
2018-12-21T03:17:13.784Z,5.83
2018-12-21T03:19:41.285Z,6.57
2018-12-21T03:22:14.597Z,6.90
2018-12-21T03:24:38.368Z,5.50
2018-12-21T03:27:06.133Z,7.20
2018-12-21T03:29:33.623Z,6.27
2018-12-21T03:32:01.117Z,5.60
2018-12-21T03:34:28.768Z,5.87
2018-12-21T03:36:56.480Z,6.00
2018-12-21T03:39:23.982Z,5.77
2018-12-21T03:41:51.516Z,6.60
2018-12-21T03:44:19.046Z,6.27
2018-12-21T03:46:46.608Z,5.70
2018-12-21T03:49:14.117Z,5.13
2018-12-21T03:51:41.628Z,5.30
2018-12-21T03:54:09.158Z,6.07
2018-12-21T03:56:36.690Z,5.97
2018-12-21T03:59:04.236Z,6.20
2018-12-21T04:01:31.745Z,6.30
2018-12-21T04:03:59.297Z,5.80
2018-12-21T04:06:26.913Z,6.40
2018-12-21T04:08:54.428Z,5.37
2018-12-21T04:11:22.161Z,4.70
2018-12-21T04:13:49.754Z,4.97
2018-12-21T04:16:17.271Z,5.37
2018-12-21T04:18:44.760Z,4.60
2018-12-21T04:21:12.309Z,4.40
2018-12-21T04:23:39.807Z,4.77
2018-12-21T04:26:07.338Z,5.00
2018-12-21T04:28:34.842Z,5.40
2018-12-21T04:31:02.515Z,4.67
2018-12-21T04:33:30.047Z,4.10
2018-12-21T04:35:57.538Z,4.87
2018-12-21T04:38:25.103Z,4.20
2018-12-21T04:40:52.620Z,4.17
2018-12-21T04:43:20.122Z,5.27
2018-12-21T04:45:47.671Z,3.73
2018-12-21T04:48:15.222Z,6.03
2018-12-21T04:50:42.873Z,4.03
2018-12-21T04:53:10.400Z,4.20
2018-12-21T04:55:37.938Z,3.90
2018-12-21T04:58:05.446Z,4.30
2018-12-21T05:00:32.937Z,3.30
2018-12-21T05:03:00.533Z,4.50
2018-12-21T05:05:28.021Z,3.60
2018-12-21T05:07:55.504Z,3.03
2018-12-21T05:10:23.010Z,3.97
2018-12-21T05:12:50.638Z,4.03
2018-12-21T05:15:18.139Z,3.93
2018-12-21T05:17:45.632Z,3.70
2018-12-21T05:20:13.477Z,4.00
2018-12-21T05:22:40.972Z,4.20
2018-12-21T05:25:08.530Z,5.47
2018-12-21T05:27:36.029Z,5.77
2018-12-21T05:30:03.527Z,5.33
2018-12-21T05:32:31.040Z,4.53
2018-12-21T05:34:58.597Z,4.83
2018-12-21T05:37:26.129Z,5.37
2018-12-21T05:39:53.642Z,5.10
2018-12-21T05:42:21.152Z,5.00
2018-12-21T05:44:48.852Z,5.60
2018-12-21T05:47:16.468Z,4.60
2018-12-21T05:49:43.957Z,5.43
2018-12-21T05:52:11.448Z,4.20
2018-12-21T05:54:38.954Z,6.17
2018-12-21T05:57:06.444Z,5.43
2018-12-21T05:59:33.916Z,5.13
2018-12-21T06:02:01.419Z,4.70
2018-12-21T06:04:28.994Z,5.30
2018-12-21T06:06:56.488Z,4.50
2018-12-21T06:09:24.014Z,4.10
2018-12-21T06:11:51.552Z,5.77
2018-12-21T06:14:19.048Z,3.90
2018-12-21T06:16:46.534Z,3.77
2018-12-21T06:19:14.032Z,4.20
2018-12-21T06:21:41.582Z,3.60
2018-12-21T06:24:09.281Z,4.20
2018-12-21T06:26:36.791Z,3.50
2018-12-21T06:29:04.276Z,4.03
2018-12-21T06:31:31.826Z,4.13
2018-12-21T06:33:59.291Z,4.50
2018-12-21T06:36:26.815Z,4.70
2018-12-21T06:38:54.431Z,4.20
2018-12-21T06:41:21.915Z,4.27
2018-12-21T06:43:49.402Z,5.40
2018-12-21T06:46:17.020Z,4.90
2018-12-21T06:48:44.495Z,5.77
2018-12-21T06:51:11.987Z,6.83
2018-12-21T06:53:39.589Z,7.10
2018-12-21T06:56:07.122Z,6.70
2018-12-21T06:58:34.653Z,8.03
2018-12-21T07:01:02.295Z,7.10
2018-12-21T07:03:29.781Z,7.90
2018-12-21T07:05:57.315Z,8.13
2018-12-21T07:08:24.853Z,8.60
2018-12-21T07:10:52.347Z,8.30
2018-12-21T07:13:19.885Z,8.60
2018-12-21T07:15:47.387Z,9.53
2018-12-21T07:18:14.903Z,9.83
2018-12-21T07:20:42.494Z,10.00
2018-12-21T07:23:10.110Z,10.33
2018-12-21T07:25:37.596Z,9.07
2018-12-21T07:28:05.072Z,9.83
2018-12-21T07:30:32.603Z,9.20
2018-12-21T07:33:00.090Z,11.33
2018-12-21T07:35:27.851Z,10.70
2018-12-21T07:37:55.380Z,10.60
2018-12-21T07:40:22.986Z,11.07
2018-12-21T07:42:50.613Z,10.10
2018-12-21T07:45:18.137Z,11.10
2018-12-21T07:47:45.633Z,11.07
2018-12-21T07:50:13.149Z,11.60
2018-12-21T07:52:40.654Z,11.27
2018-12-21T07:55:08.165Z,11.23
2018-12-21T07:57:35.645Z,10.47
2018-12-21T08:00:03.617Z,11.17
2018-12-21T08:02:31.099Z,11.00
2018-12-21T08:04:58.748Z,11.60
2018-12-21T08:07:26.244Z,12.80
2018-12-21T08:09:53.735Z,12.20
2018-12-21T08:12:21.391Z,12.77
2018-12-21T08:14:48.890Z,12.20
2018-12-21T08:17:16.388Z,11.13
2018-12-21T08:19:43.937Z,11.73
2018-12-21T08:22:11.429Z,11.70
2018-12-21T08:24:38.953Z,10.87
2018-12-21T08:27:06.429Z,11.63
2018-12-21T08:29:33.926Z,12.37
2018-12-21T08:32:01.598Z,11.47
2018-12-21T08:34:29.085Z,12.17
2018-12-21T08:36:56.727Z,11.40
2018-12-21T08:39:24.212Z,11.20
2018-12-21T08:41:51.742Z,11.43
2018-12-21T08:44:19.247Z,10.83
2018-12-21T08:46:46.769Z,12.30
2018-12-21T08:49:14.281Z,10.20
2018-12-21T08:51:41.778Z,9.27
2018-12-21T08:54:09.290Z,9.90
2018-12-21T08:56:36.776Z,9.53
2018-12-21T08:59:04.257Z,7.93
2018-12-21T09:01:31.760Z,8.10
2018-12-21T09:03:59.238Z,9.00
2018-12-21T09:06:26.738Z,7.40
2018-12-21T09:08:54.214Z,7.90
2018-12-21T09:11:21.722Z,9.17
2018-12-21T09:13:49.209Z,8.23
2018-12-21T09:16:16.747Z,8.40
2018-12-21T09:18:44.240Z,8.60
2018-12-21T09:21:11.746Z,7.60
2018-12-21T09:23:39.292Z,7.70
2018-12-21T09:26:06.934Z,7.57
2018-12-21T09:28:34.430Z,7.70
2018-12-21T09:31:01.910Z,7.90
2018-12-21T09:33:29.524Z,8.60
2018-12-21T09:35:57.005Z,7.90
2018-12-21T09:38:24.525Z,7.87
2018-12-21T09:40:53.650Z,7.47
2018-12-21T09:43:21.258Z,8.20
2018-12-21T09:45:48.741Z,8.00
2018-12-21T09:48:16.225Z,8.27
2018-12-21T09:50:43.751Z,7.63
2018-12-21T09:53:11.237Z,7.73
2018-12-21T09:55:38.723Z,7.13
2018-12-21T09:58:06.261Z,8.70
2018-12-21T10:00:33.751Z,8.00
2018-12-21T10:03:01.303Z,7.00
2018-12-21T10:05:28.794Z,7.37
2018-12-21T10:07:56.413Z,7.20
2018-12-21T10:10:23.912Z,8.10
2018-12-21T10:12:53.490Z,8.50
2018-12-21T10:15:20.963Z,7.00
2018-12-21T10:17:48.484Z,8.30
2018-12-21T10:20:19.894Z,7.03
2018-12-21T10:22:45.621Z,9.13
2018-12-21T10:25:13.105Z,8.40
2018-12-21T10:27:40.607Z,8.47
2018-12-21T10:30:09.708Z,8.33
2018-12-21T10:32:37.362Z,10.00
2018-12-21T10:35:05.877Z,9.57
2018-12-21T10:37:33.408Z,10.63
2018-12-21T10:40:00.924Z,9.90
2018-12-21T10:42:28.417Z,10.50
2018-12-21T10:44:56.004Z,11.57
2018-12-21T10:47:23.545Z,10.40
2018-12-21T10:49:51.040Z,11.03
2018-12-21T10:52:18.555Z,11.53
2018-12-21T10:54:46.181Z,12.47
2018-12-21T10:57:13.682Z,12.40
2018-12-21T10:59:43.556Z,12.90
2018-12-21T11:02:10.723Z,12.00
2018-12-21T11:04:39.103Z,11.40
2018-12-21T11:07:06.640Z,12.57
2018-12-21T11:09:34.261Z,12.07
2018-12-21T11:12:01.751Z,11.17
2018-12-21T11:14:29.300Z,12.20
2018-12-21T11:16:56.807Z,12.90
2018-12-21T11:19:24.311Z,12.47
2018-12-21T11:21:51.985Z,12.30
2018-12-21T11:24:19.509Z,10.63
2018-12-21T11:26:46.999Z,12.63
2018-12-21T11:29:14.513Z,11.17
2018-12-21T11:31:42.044Z,10.47
2018-12-21T11:34:09.663Z,10.40
2018-12-21T11:36:37.147Z,9.53
2018-12-21T11:39:05.965Z,9.43
2018-12-21T11:41:33.509Z,9.63
2018-12-21T11:44:01.041Z,10.97
2018-12-21T11:46:28.583Z,9.50
2018-12-21T11:48:56.200Z,10.40
2018-12-21T11:51:23.829Z,10.10
2018-12-21T11:53:51.357Z,10.10
2018-12-21T11:56:19.082Z,9.43
2018-12-21T11:58:46.711Z,6.20
2018-12-21T12:01:14.242Z,6.20
2018-12-21T12:03:41.781Z,6.97
2018-12-21T12:06:09.268Z,7.23
2018-12-21T12:08:36.757Z,7.40
2018-12-21T12:11:04.295Z,7.37
2018-12-21T12:13:32.118Z,8.37
2018-12-21T12:15:59.661Z,7.53
2018-12-21T12:18:27.146Z,9.03
2018-12-21T12:20:54.784Z,7.70
2018-12-21T12:23:22.299Z,6.43
2018-12-21T12:25:49.860Z,7.93
2018-12-21T12:28:17.397Z,7.33
2018-12-21T12:30:44.874Z,6.30
2018-12-21T12:33:12.360Z,6.60
2018-12-21T12:35:39.868Z,7.33
2018-12-21T12:38:07.349Z,5.80
2018-12-21T12:40:34.895Z,6.37
2018-12-21T12:43:02.388Z,6.30
2018-12-21T12:45:29.913Z,5.77
2018-12-21T12:47:57.393Z,5.37
2018-12-21T12:50:24.872Z,4.30
2018-12-21T12:52:52.410Z,5.30
2018-12-21T12:55:19.923Z,4.53
2018-12-21T12:57:47.428Z,4.93
2018-12-21T13:00:15.043Z,4.57
2018-12-21T13:02:42.513Z,4.60
2018-12-21T13:05:09.995Z,4.20
2018-12-21T13:07:37.617Z,4.77
2018-12-21T13:10:08.020Z,3.83
2018-12-21T13:12:35.509Z,4.97
2018-12-21T13:15:03.206Z,4.37
2018-12-21T13:17:30.707Z,4.70
2018-12-21T13:19:58.192Z,4.80
2018-12-21T13:22:25.839Z,4.33
2018-12-21T13:24:53.333Z,4.10
2018-12-21T13:27:20.813Z,4.03
2018-12-21T13:29:48.329Z,4.40
2018-12-21T13:32:15.811Z,4.67
2018-12-21T13:34:43.342Z,4.30
2018-12-21T13:37:10.876Z,3.40
2018-12-21T13:39:38.402Z,3.70
2018-12-21T13:42:05.925Z,3.50
2018-12-21T13:44:33.419Z,3.07
2018-12-21T13:47:00.889Z,2.60
2018-12-21T13:49:28.508Z,3.40
2018-12-21T13:51:56.063Z,2.63
2018-12-21T13:54:23.540Z,2.50
2018-12-21T13:56:51.046Z,2.57
2018-12-21T13:59:18.539Z,2.47
2018-12-21T14:01:46.155Z,2.73
2018-12-21T14:04:13.684Z,2.17
2018-12-21T14:06:41.185Z,1.83
2018-12-21T14:09:08.723Z,2.07
2018-12-21T14:11:36.232Z,2.00
2018-12-21T14:14:03.793Z,2.13
2018-12-21T14:16:31.274Z,1.90
2018-12-21T14:18:58.751Z,2.60
2018-12-21T14:21:26.253Z,1.60
2018-12-21T14:23:53.770Z,1.43
2018-12-21T14:26:21.402Z,1.77
2018-12-21T14:28:48.880Z,1.70
2018-12-21T14:31:16.361Z,2.13
2018-12-21T14:33:43.967Z,1.30
2018-12-21T14:36:11.451Z,1.73
2018-12-21T14:38:38.941Z,1.00
2018-12-21T14:41:06.542Z,1.33
2018-12-21T14:43:34.029Z,1.70
2018-12-21T14:46:01.517Z,1.67
2018-12-21T14:48:29.045Z,1.17
2018-12-21T14:50:56.533Z,1.83
2018-12-21T14:53:24.051Z,1.50
2018-12-21T14:55:51.546Z,1.20
2018-12-21T14:58:19.029Z,1.23
2018-12-21T15:00:46.644Z,1.50
2018-12-21T15:03:14.166Z,3.17
2018-12-21T15:05:41.646Z,1.53
2018-12-21T15:08:09.298Z,0.90
2018-12-21T15:10:36.825Z,1.33
2018-12-21T15:13:04.339Z,1.23
2018-12-21T15:15:31.967Z,2.10
2018-12-21T15:17:59.464Z,2.30
2018-12-21T15:20:26.973Z,1.83
2018-12-21T15:25:28.353Z,2.50
2018-12-21T15:27:55.958Z,1.50
2018-12-21T15:30:23.541Z,1.37
2018-12-21T15:32:51.122Z,1.40
2018-12-21T15:35:18.766Z,1.90
2018-12-21T15:37:46.243Z,2.73
2018-12-21T15:40:13.750Z,4.37
2018-12-21T15:42:41.248Z,1.77
2018-12-21T15:45:08.867Z,2.33
2018-12-21T15:47:36.405Z,2.83
2018-12-21T15:50:06.466Z,2.27
2018-12-21T15:52:33.993Z,1.87
2018-12-21T15:55:01.473Z,2.00
2018-12-21T15:57:28.995Z,1.70
2018-12-21T15:59:56.528Z,3.60
2018-12-21T16:02:24.422Z,3.23
2018-12-21T16:04:51.910Z,2.23
2018-12-21T16:07:19.427Z,2.33
2018-12-21T16:09:46.907Z,2.47
2018-12-21T16:12:14.453Z,2.83
2018-12-21T16:14:41.938Z,4.50
2018-12-21T16:17:09.417Z,3.60
2018-12-21T16:19:36.927Z,4.57
2018-12-21T16:22:04.417Z,3.47
2018-12-21T16:24:32.511Z,3.53
2018-12-21T16:27:00.002Z,4.77
2018-12-21T16:29:27.479Z,3.83
2018-12-21T16:31:55.013Z,4.40
2018-12-21T16:34:22.491Z,3.53
2018-12-21T16:36:50.032Z,4.03
2018-12-21T16:39:17.548Z,4.60
2018-12-21T16:41:45.083Z,6.07
2018-12-21T16:44:12.603Z,4.97
2018-12-21T16:46:40.121Z,4.23
2018-12-21T16:49:07.806Z,5.33
2018-12-21T16:51:35.293Z,4.77
2018-12-21T16:54:02.821Z,3.40
2018-12-21T16:56:30.326Z,5.20
2018-12-21T16:58:57.813Z,3.87
2018-12-21T17:01:25.355Z,6.50
2018-12-21T17:03:52.878Z,4.77
2018-12-21T17:06:20.381Z,5.30
2018-12-21T17:08:47.900Z,4.57
2018-12-21T17:11:15.378Z,5.23
2018-12-21T17:13:42.885Z,6.37
2018-12-21T17:16:10.400Z,6.33
2018-12-21T17:18:37.897Z,5.43
2018-12-21T17:21:05.527Z,4.63
2018-12-21T17:23:33.035Z,5.70
2018-12-21T17:26:00.537Z,5.93
2018-12-21T17:28:28.154Z,5.53
2018-12-21T17:30:55.679Z,6.00
2018-12-21T17:33:23.174Z,5.80
2018-12-21T17:35:50.745Z,6.30
2018-12-21T17:38:18.258Z,4.67
2018-12-21T17:40:45.781Z,5.47
2018-12-21T17:43:13.282Z,5.40
2018-12-21T17:45:40.761Z,6.70
2018-12-21T17:48:08.269Z,5.93
2018-12-21T17:50:35.993Z,4.97
2018-12-21T17:53:03.571Z,4.60
2018-12-21T17:55:31.057Z,5.43
2018-12-21T17:57:58.548Z,4.90
2018-12-21T18:00:26.094Z,3.37
2018-12-21T18:02:53.583Z,3.67
2018-12-21T18:05:21.111Z,2.80
2018-12-21T18:07:48.773Z,3.90
2018-12-21T18:10:16.256Z,4.30
2018-12-21T18:12:43.749Z,3.27
2018-12-21T18:15:11.293Z,4.77
2018-12-21T18:17:38.802Z,2.90
2018-12-21T18:20:08.677Z,3.60
2018-12-21T18:22:36.224Z,3.20
2018-12-21T18:25:10.148Z,2.60
2018-12-21T18:27:37.789Z,3.63
2018-12-21T18:30:10.796Z,3.73
2018-12-21T18:32:38.374Z,2.63
2018-12-21T18:35:07.383Z,3.43
2018-12-21T18:37:35.128Z,3.07
2018-12-21T18:40:05.011Z,2.87
2018-12-21T18:42:32.476Z,1.47
2018-12-21T18:45:00.088Z,2.63
2018-12-21T18:47:27.676Z,1.40
2018-12-21T18:49:55.347Z,0.90
2018-12-21T18:52:22.825Z,1.33
2018-12-21T18:54:50.325Z,2.23
2018-12-21T18:57:18.101Z,1.43
2018-12-21T18:59:45.634Z,1.53
2018-12-21T19:02:13.114Z,2.07
2018-12-21T19:04:40.646Z,2.17
2018-12-21T19:07:08.132Z,1.53
2018-12-21T19:09:35.650Z,1.33
2018-12-21T19:12:03.153Z,1.37
2018-12-21T19:14:30.773Z,1.57
2018-12-21T19:16:58.297Z,0.97
2018-12-21T19:19:25.777Z,1.10
2018-12-21T19:21:53.426Z,1.63
2018-12-21T19:24:20.905Z,1.17
2018-12-21T19:26:55.601Z,1.30
2018-12-21T19:29:18.242Z,0.90
2018-12-21T19:31:45.988Z,1.10
2018-12-21T19:34:13.480Z,1.37
2018-12-21T19:36:41.091Z,1.27
2018-12-21T19:39:08.648Z,1.20
2018-12-21T19:41:36.262Z,1.70
2018-12-21T19:44:03.808Z,1.40
2018-12-21T19:46:31.334Z,1.40
2018-12-21T19:48:58.911Z,0.87
2018-12-21T19:51:26.527Z,1.60
2018-12-21T19:53:54.033Z,1.10
2018-12-21T19:56:21.692Z,1.20
2018-12-21T19:58:49.346Z,1.10
2018-12-21T20:01:16.837Z,1.40
2018-12-21T20:03:44.374Z,1.37
2018-12-21T20:06:12.674Z,0.90
2018-12-21T20:08:40.204Z,1.37
2018-12-21T20:11:07.899Z,1.57
2018-12-21T20:13:35.381Z,1.43
2018-12-21T20:16:03.032Z,1.27
2018-12-21T20:18:30.530Z,1.40
2018-12-21T20:20:58.022Z,1.23
2018-12-21T20:23:25.537Z,1.87
2018-12-21T20:25:53.021Z,1.77
2018-12-21T20:28:20.589Z,1.10
2018-12-21T20:30:48.085Z,1.20
2018-12-21T20:33:15.601Z,0.93
2018-12-21T20:35:43.238Z,1.43
2018-12-21T20:38:10.870Z,1.30
2018-12-21T20:40:39.050Z,1.13
2018-12-21T20:43:06.564Z,1.37
2018-12-21T20:45:34.128Z,0.93
2018-12-21T20:48:01.621Z,0.80
2018-12-21T20:50:29.105Z,2.07
2018-12-21T20:52:56.608Z,0.80
2018-12-21T20:55:24.287Z,0.73
2018-12-21T20:57:52.251Z,0.80
2018-12-21T21:00:19.736Z,1.07
2018-12-21T21:02:47.225Z,0.80
2018-12-21T21:05:14.766Z,0.67
2018-12-21T21:07:42.361Z,0.50
2018-12-21T21:10:11.508Z,0.70
2018-12-21T21:12:39.283Z,0.50
2018-12-21T21:15:09.942Z,1.03
2018-12-21T21:17:37.494Z,0.80
2018-12-21T21:20:10.183Z,0.53
2018-12-21T21:22:37.839Z,1.07
2018-12-21T21:25:06.927Z,1.10
2018-12-21T21:27:34.469Z,0.60
2018-12-21T21:30:02.120Z,0.60
2018-12-21T21:32:29.651Z,1.00
2018-12-21T21:34:57.267Z,0.80
2018-12-21T21:37:24.878Z,1.07
2018-12-21T21:39:52.360Z,0.80
2018-12-21T21:42:19.931Z,1.07
2018-12-21T21:44:47.453Z,0.87
2018-12-21T21:47:15.080Z,0.80
2018-12-21T21:49:42.573Z,0.87
2018-12-21T21:52:10.316Z,1.23
2018-12-21T21:54:37.907Z,0.60
2018-12-21T21:57:05.395Z,1.00
2018-12-21T21:59:32.947Z,0.77
2018-12-21T22:02:00.496Z,2.03
2018-12-21T22:04:27.986Z,1.27
2018-12-21T22:06:55.488Z,0.67
2018-12-21T22:09:23.038Z,0.90
2018-12-21T22:11:50.591Z,1.30
2018-12-21T22:14:18.128Z,1.03
2018-12-21T22:16:45.609Z,0.90
2018-12-21T22:19:13.179Z,0.50
2018-12-21T22:21:40.677Z,0.73
2018-12-21T22:24:08.227Z,1.30
2018-12-21T22:26:35.725Z,1.00
2018-12-21T22:29:03.326Z,0.57
2018-12-21T22:31:33.499Z,0.70
2018-12-21T22:34:03.828Z,0.87
2018-12-21T22:36:34.747Z,0.50
2018-12-21T22:39:05.304Z,0.77
2018-12-21T22:41:35.211Z,0.67
2018-12-21T22:44:05.086Z,0.53
2018-12-21T22:46:35.479Z,0.77
2018-12-21T22:49:05.702Z,1.00
2018-12-21T22:51:33.228Z,0.50
2018-12-21T22:54:00.769Z,0.50
2018-12-21T22:56:28.257Z,0.60
2018-12-21T22:58:55.785Z,0.50
2018-12-21T23:01:23.340Z,0.73
2018-12-21T23:03:50.913Z,0.90
2018-12-21T23:06:18.453Z,1.00
2018-12-21T23:08:45.945Z,0.73
2018-12-21T23:11:13.480Z,0.60
2018-12-21T23:13:40.983Z,0.70
2018-12-21T23:16:08.492Z,1.20
2018-12-21T23:18:36.347Z,0.80
2018-12-21T23:21:03.968Z,0.60
2018-12-21T23:23:31.498Z,1.00
2018-12-21T23:25:58.977Z,0.80
2018-12-21T23:28:26.599Z,1.57
2018-12-21T23:30:54.135Z,1.10
2018-12-21T23:33:21.629Z,0.80
2018-12-21T23:35:49.157Z,0.70
2018-12-21T23:38:16.650Z,0.60
2018-12-21T23:40:44.148Z,2.40
2018-12-21T23:43:11.748Z,0.80
2018-12-21T23:45:39.280Z,0.93
2018-12-21T23:48:06.807Z,1.47
2018-12-21T23:50:34.332Z,0.83
2018-12-21T23:53:02.058Z,0.90
2018-12-21T23:55:29.586Z,0.90
2018-12-21T23:57:57.141Z,1.17
